sensor_id;sensor_type;location;lat;lon;timestamp;P1;durP1;ratioP1;P2;durP2;ratioP2
2896;SDS011;1458;49.728;9.228;2022-12-24T00:02:15;0.60;;;0.60;;
2896;SDS011;1458;49.728;9.228;2022-12-24T00:04:44;0.60;;;0.60;;
2896;SDS011;1458;49.728;9.228;2022-12-24T00:07:12;0.50;;;0.50;;
2896;SDS011;1458;49.728;9.228;2022-12-24T00:09:43;0.40;;;0.40;;
2896;SDS011;1458;49.728;9.228;2022-12-24T00:12:16;0.50;;;0.50;;
2896;SDS011;1458;49.728;9.228;2022-12-24T00:14:46;0.50;;;0.50;;
2896;SDS011;1458;49.728;9.228;2022-12-24T00:17:16;0.40;;;0.40;;
2896;SDS011;1458;49.728;9.228;2022-12-24T00:19:45;0.50;;;0.50;;
2896;SDS011;1458;49.728;9.228;2022-12-24T00:22:14;0.60;;;0.60;;
2896;SDS011;1458;49.728;9.228;2022-12-24T00:24:41;0.50;;;0.50;;
2896;SDS011;1458;49.728;9.228;2022-12-24T00:27:17;0.50;;;0.50;;
2896;SDS011;1458;49.728;9.228;2022-12-24T00:29:46;0.60;;;0.60;;
2896;SDS011;1458;49.728;9.228;2022-12-24T00:32:14;0.50;;;0.50;;
2896;SDS011;1458;49.728;9.228;2022-12-24T00:34:42;0.70;;;0.70;;
2896;SDS011;1458;49.728;9.228;2022-12-24T00:37:13;0.50;;;0.50;;
2896;SDS011;1458;49.728;9.228;2022-12-24T00:39:40;0.60;;;0.60;;
2896;SDS011;1458;49.728;9.228;2022-12-24T00:42:13;0.50;;;0.50;;
2896;SDS011;1458;49.728;9.228;2022-12-24T00:44:42;0.60;;;0.60;;
2896;SDS011;1458;49.728;9.228;2022-12-24T00:47:10;0.60;;;0.60;;
2896;SDS011;1458;49.728;9.228;2022-12-24T00:49:40;0.50;;;0.50;;
2896;SDS011;1458;49.728;9.228;2022-12-24T00:52:08;0.60;;;0.60;;
2896;SDS011;1458;49.728;9.228;2022-12-24T00:54:36;0.70;;;0.70;;
2896;SDS011;1458;49.728;9.228;2022-12-24T00:57:03;0.60;;;0.60;;
2896;SDS011;1458;49.728;9.228;2022-12-24T00:59:31;0.70;;;0.70;;
2896;SDS011;1458;49.728;9.228;2022-12-24T01:02:01;0.67;;;0.67;;
2896;SDS011;1458;49.728;9.228;2022-12-24T01:04:31;0.70;;;0.70;;
2896;SDS011;1458;49.728;9.228;2022-12-24T01:07:17;0.60;;;0.60;;
2896;SDS011;1458;49.728;9.228;2022-12-24T01:09:44;0.60;;;0.60;;
2896;SDS011;1458;49.728;9.228;2022-12-24T01:12:13;0.60;;;0.60;;
2896;SDS011;1458;49.728;9.228;2022-12-24T01:14:42;0.60;;;0.60;;
2896;SDS011;1458;49.728;9.228;2022-12-24T01:17:12;0.60;;;0.60;;
2896;SDS011;1458;49.728;9.228;2022-12-24T01:19:39;0.60;;;0.60;;
2896;SDS011;1458;49.728;9.228;2022-12-24T01:22:07;0.60;;;0.60;;
2896;SDS011;1458;49.728;9.228;2022-12-24T01:24:36;0.60;;;0.60;;
2896;SDS011;1458;49.728;9.228;2022-12-24T01:27:06;0.60;;;0.60;;
2896;SDS011;1458;49.728;9.228;2022-12-24T01:29:35;0.70;;;0.70;;
2896;SDS011;1458;49.728;9.228;2022-12-24T01:32:02;0.77;;;0.77;;
2896;SDS011;1458;49.728;9.228;2022-12-24T01:34:33;0.70;;;0.70;;
2896;SDS011;1458;49.728;9.228;2022-12-24T01:37:09;0.70;;;0.70;;
2896;SDS011;1458;49.728;9.228;2022-12-24T01:39:36;0.80;;;0.80;;
2896;SDS011;1458;49.728;9.228;2022-12-24T01:42:10;0.80;;;0.80;;
2896;SDS011;1458;49.728;9.228;2022-12-24T01:48:13;0.80;;;0.80;;
2896;SDS011;1458;49.728;9.228;2022-12-24T01:50:56;0.80;;;0.80;;
2896;SDS011;1458;49.728;9.228;2022-12-24T01:53:27;0.80;;;0.80;;
2896;SDS011;1458;49.728;9.228;2022-12-24T01:55:55;0.70;;;0.70;;
2896;SDS011;1458;49.728;9.228;2022-12-24T01:58:23;0.90;;;0.90;;
2896;SDS011;1458;49.728;9.228;2022-12-24T02:00:53;0.70;;;0.70;;
2896;SDS011;1458;49.728;9.228;2022-12-24T02:03:21;0.70;;;0.70;;
2896;SDS011;1458;49.728;9.228;2022-12-24T02:05:49;0.70;;;0.70;;
2896;SDS011;1458;49.728;9.228;2022-12-24T02:08:20;0.60;;;0.60;;
2896;SDS011;1458;49.728;9.228;2022-12-24T02:10:48;0.70;;;0.70;;
2896;SDS011;1458;49.728;9.228;2022-12-24T02:13:17;0.77;;;0.77;;
2896;SDS011;1458;49.728;9.228;2022-12-24T02:15:55;0.73;;;0.73;;
2896;SDS011;1458;49.728;9.228;2022-12-24T02:18:36;0.87;;;0.87;;
2896;SDS011;1458;49.728;9.228;2022-12-24T02:21:20;0.70;;;0.70;;
2896;SDS011;1458;49.728;9.228;2022-12-24T02:27:28;0.70;;;0.70;;
2896;SDS011;1458;49.728;9.228;2022-12-24T02:30:17;0.70;;;0.70;;
2896;SDS011;1458;49.728;9.228;2022-12-24T02:32:51;0.70;;;0.70;;
2896;SDS011;1458;49.728;9.228;2022-12-24T02:35:43;0.80;;;0.80;;
2896;SDS011;1458;49.728;9.228;2022-12-24T02:38:18;0.77;;;0.77;;
2896;SDS011;1458;49.728;9.228;2022-12-24T02:40:52;0.80;;;0.80;;
2896;SDS011;1458;49.728;9.228;2022-12-24T02:43:25;0.80;;;0.80;;
2896;SDS011;1458;49.728;9.228;2022-12-24T02:46:02;0.80;;;0.80;;
2896;SDS011;1458;49.728;9.228;2022-12-24T02:48:35;0.80;;;0.80;;
2896;SDS011;1458;49.728;9.228;2022-12-24T02:51:06;0.80;;;0.80;;
2896;SDS011;1458;49.728;9.228;2022-12-24T02:53:36;0.80;;;0.80;;
2896;SDS011;1458;49.728;9.228;2022-12-24T02:56:13;0.70;;;0.70;;
2896;SDS011;1458;49.728;9.228;2022-12-24T02:59:11;0.70;;;0.70;;
2896;SDS011;1458;49.728;9.228;2022-12-24T03:02:12;0.70;;;0.70;;
2896;SDS011;1458;49.728;9.228;2022-12-24T03:04:55;0.70;;;0.70;;
2896;SDS011;1458;49.728;9.228;2022-12-24T03:07:37;0.70;;;0.70;;
2896;SDS011;1458;49.728;9.228;2022-12-24T03:10:19;0.70;;;0.70;;
2896;SDS011;1458;49.728;9.228;2022-12-24T03:12:54;0.70;;;0.70;;
2896;SDS011;1458;49.728;9.228;2022-12-24T03:15:25;0.70;;;0.70;;
2896;SDS011;1458;49.728;9.228;2022-12-24T03:18:00;0.70;;;0.70;;
2896;SDS011;1458;49.728;9.228;2022-12-24T03:20:31;0.60;;;0.60;;
2896;SDS011;1458;49.728;9.228;2022-12-24T03:23:06;0.80;;;0.80;;
2896;SDS011;1458;49.728;9.228;2022-12-24T03:25:37;0.80;;;0.80;;
2896;SDS011;1458;49.728;9.228;2022-12-24T03:28:13;0.83;;;0.83;;
2896;SDS011;1458;49.728;9.228;2022-12-24T03:30:47;0.60;;;0.60;;
2896;SDS011;1458;49.728;9.228;2022-12-24T03:33:18;0.60;;;0.60;;
2896;SDS011;1458;49.728;9.228;2022-12-24T03:35:53;0.50;;;0.50;;
2896;SDS011;1458;49.728;9.228;2022-12-24T03:38:24;0.70;;;0.70;;
2896;SDS011;1458;49.728;9.228;2022-12-24T03:40:53;0.60;;;0.60;;
2896;SDS011;1458;49.728;9.228;2022-12-24T03:43:22;0.60;;;0.60;;
2896;SDS011;1458;49.728;9.228;2022-12-24T03:45:51;0.50;;;0.50;;
2896;SDS011;1458;49.728;9.228;2022-12-24T03:48:21;0.77;;;0.77;;
2896;SDS011;1458;49.728;9.228;2022-12-24T03:50:49;0.60;;;0.60;;
2896;SDS011;1458;49.728;9.228;2022-12-24T03:53:18;0.60;;;0.60;;
2896;SDS011;1458;49.728;9.228;2022-12-24T03:55:48;0.50;;;0.50;;
2896;SDS011;1458;49.728;9.228;2022-12-24T03:58:17;0.50;;;0.50;;
2896;SDS011;1458;49.728;9.228;2022-12-24T04:00:47;0.53;;;0.53;;
2896;SDS011;1458;49.728;9.228;2022-12-24T04:03:15;0.60;;;0.60;;
2896;SDS011;1458;49.728;9.228;2022-12-24T04:05:45;0.50;;;0.50;;
2896;SDS011;1458;49.728;9.228;2022-12-24T04:08:13;0.60;;;0.60;;
2896;SDS011;1458;49.728;9.228;2022-12-24T04:10:41;0.50;;;0.50;;
2896;SDS011;1458;49.728;9.228;2022-12-24T04:13:10;0.50;;;0.50;;
2896;SDS011;1458;49.728;9.228;2022-12-24T04:15:37;0.60;;;0.60;;
2896;SDS011;1458;49.728;9.228;2022-12-24T04:18:06;0.60;;;0.60;;
2896;SDS011;1458;49.728;9.228;2022-12-24T04:20:36;0.50;;;0.50;;
2896;SDS011;1458;49.728;9.228;2022-12-24T04:23:06;0.50;;;0.50;;
2896;SDS011;1458;49.728;9.228;2022-12-24T04:25:35;0.60;;;0.60;;
2896;SDS011;1458;49.728;9.228;2022-12-24T04:28:06;0.50;;;0.50;;
2896;SDS011;1458;49.728;9.228;2022-12-24T04:30:36;0.70;;;0.70;;
2896;SDS011;1458;49.728;9.228;2022-12-24T04:33:07;0.50;;;0.50;;
2896;SDS011;1458;49.728;9.228;2022-12-24T04:35:38;0.50;;;0.50;;
2896;SDS011;1458;49.728;9.228;2022-12-24T04:38:09;0.50;;;0.50;;
2896;SDS011;1458;49.728;9.228;2022-12-24T04:40:37;0.60;;;0.60;;
2896;SDS011;1458;49.728;9.228;2022-12-24T04:43:06;0.70;;;0.70;;
2896;SDS011;1458;49.728;9.228;2022-12-24T04:45:35;0.60;;;0.60;;
2896;SDS011;1458;49.728;9.228;2022-12-24T04:48:05;0.60;;;0.60;;
2896;SDS011;1458;49.728;9.228;2022-12-24T04:50:33;0.60;;;0.60;;
2896;SDS011;1458;49.728;9.228;2022-12-24T04:53:00;0.50;;;0.50;;
2896;SDS011;1458;49.728;9.228;2022-12-24T04:55:34;0.60;;;0.60;;
2896;SDS011;1458;49.728;9.228;2022-12-24T04:58:02;0.60;;;0.60;;
2896;SDS011;1458;49.728;9.228;2022-12-24T05:00:30;0.60;;;0.60;;
2896;SDS011;1458;49.728;9.228;2022-12-24T05:02:57;0.60;;;0.60;;
2896;SDS011;1458;49.728;9.228;2022-12-24T05:05:24;0.53;;;0.53;;
2896;SDS011;1458;49.728;9.228;2022-12-24T05:07:52;0.50;;;0.50;;
2896;SDS011;1458;49.728;9.228;2022-12-24T05:10:19;0.50;;;0.50;;
2896;SDS011;1458;49.728;9.228;2022-12-24T05:12:48;0.50;;;0.50;;
2896;SDS011;1458;49.728;9.228;2022-12-24T05:15:16;0.50;;;0.50;;
2896;SDS011;1458;49.728;9.228;2022-12-24T05:17:43;0.50;;;0.50;;
2896;SDS011;1458;49.728;9.228;2022-12-24T05:20:11;0.70;;;0.70;;
2896;SDS011;1458;49.728;9.228;2022-12-24T05:22:41;0.40;;;0.40;;
2896;SDS011;1458;49.728;9.228;2022-12-24T05:25:27;0.40;;;0.40;;
2896;SDS011;1458;49.728;9.228;2022-12-24T05:28:18;0.40;;;0.40;;
2896;SDS011;1458;49.728;9.228;2022-12-24T05:30:49;0.40;;;0.40;;
2896;SDS011;1458;49.728;9.228;2022-12-24T05:33:16;0.40;;;0.40;;
2896;SDS011;1458;49.728;9.228;2022-12-24T05:35:44;0.50;;;0.50;;
2896;SDS011;1458;49.728;9.228;2022-12-24T05:38:11;0.33;;;0.33;;
2896;SDS011;1458;49.728;9.228;2022-12-24T05:40:38;0.40;;;0.40;;
2896;SDS011;1458;49.728;9.228;2022-12-24T05:43:06;0.30;;;0.30;;
2896;SDS011;1458;49.728;9.228;2022-12-24T05:45:35;0.40;;;0.40;;
2896;SDS011;1458;49.728;9.228;2022-12-24T05:48:02;0.30;;;0.30;;
2896;SDS011;1458;49.728;9.228;2022-12-24T05:50:32;0.40;;;0.40;;
2896;SDS011;1458;49.728;9.228;2022-12-24T05:53:03;0.30;;;0.30;;
2896;SDS011;1458;49.728;9.228;2022-12-24T05:55:31;0.40;;;0.40;;
2896;SDS011;1458;49.728;9.228;2022-12-24T05:57:59;0.30;;;0.30;;
2896;SDS011;1458;49.728;9.228;2022-12-24T06:00:27;0.40;;;0.40;;
2896;SDS011;1458;49.728;9.228;2022-12-24T06:02:55;0.30;;;0.30;;
2896;SDS011;1458;49.728;9.228;2022-12-24T06:05:23;0.30;;;0.30;;
2896;SDS011;1458;49.728;9.228;2022-12-24T06:07:50;0.30;;;0.30;;
2896;SDS011;1458;49.728;9.228;2022-12-24T06:10:18;0.40;;;0.40;;
2896;SDS011;1458;49.728;9.228;2022-12-24T06:12:45;0.30;;;0.30;;
2896;SDS011;1458;49.728;9.228;2022-12-24T06:15:13;0.30;;;0.30;;
2896;SDS011;1458;49.728;9.228;2022-12-24T06:17:40;0.30;;;0.30;;
2896;SDS011;1458;49.728;9.228;2022-12-24T06:20:10;0.40;;;0.40;;
2896;SDS011;1458;49.728;9.228;2022-12-24T06:22:37;0.30;;;0.30;;
2896;SDS011;1458;49.728;9.228;2022-12-24T06:25:05;0.30;;;0.30;;
2896;SDS011;1458;49.728;9.228;2022-12-24T06:27:34;0.30;;;0.30;;
2896;SDS011;1458;49.728;9.228;2022-12-24T06:30:01;0.30;;;0.30;;
2896;SDS011;1458;49.728;9.228;2022-12-24T06:32:29;0.30;;;0.30;;
2896;SDS011;1458;49.728;9.228;2022-12-24T06:34:56;0.30;;;0.30;;
2896;SDS011;1458;49.728;9.228;2022-12-24T06:37:25;0.30;;;0.30;;
2896;SDS011;1458;49.728;9.228;2022-12-24T06:39:53;0.40;;;0.40;;
2896;SDS011;1458;49.728;9.228;2022-12-24T06:42:20;0.30;;;0.30;;
2896;SDS011;1458;49.728;9.228;2022-12-24T06:44:48;0.37;;;0.37;;
2896;SDS011;1458;49.728;9.228;2022-12-24T06:47:16;0.30;;;0.30;;
2896;SDS011;1458;49.728;9.228;2022-12-24T06:49:43;0.30;;;0.30;;
2896;SDS011;1458;49.728;9.228;2022-12-24T06:52:10;0.30;;;0.30;;
2896;SDS011;1458;49.728;9.228;2022-12-24T06:54:39;0.30;;;0.30;;
2896;SDS011;1458;49.728;9.228;2022-12-24T06:57:06;0.30;;;0.30;;
2896;SDS011;1458;49.728;9.228;2022-12-24T06:59:34;0.30;;;0.30;;
2896;SDS011;1458;49.728;9.228;2022-12-24T07:02:01;0.30;;;0.30;;
2896;SDS011;1458;49.728;9.228;2022-12-24T07:04:29;0.30;;;0.30;;
2896;SDS011;1458;49.728;9.228;2022-12-24T07:06:56;0.30;;;0.30;;
2896;SDS011;1458;49.728;9.228;2022-12-24T07:09:24;0.30;;;0.30;;
2896;SDS011;1458;49.728;9.228;2022-12-24T07:11:52;0.30;;;0.30;;
2896;SDS011;1458;49.728;9.228;2022-12-24T07:14:20;0.30;;;0.30;;
2896;SDS011;1458;49.728;9.228;2022-12-24T07:16:47;0.30;;;0.30;;
2896;SDS011;1458;49.728;9.228;2022-12-24T07:19:15;0.30;;;0.30;;
2896;SDS011;1458;49.728;9.228;2022-12-24T07:21:42;0.30;;;0.30;;
2896;SDS011;1458;49.728;9.228;2022-12-24T07:24:09;0.30;;;0.30;;
2896;SDS011;1458;49.728;9.228;2022-12-24T07:26:37;0.40;;;0.40;;
2896;SDS011;1458;49.728;9.228;2022-12-24T07:29:05;0.30;;;0.30;;
2896;SDS011;1458;49.728;9.228;2022-12-24T07:31:33;0.30;;;0.30;;
2896;SDS011;1458;49.728;9.228;2022-12-24T07:34:00;0.30;;;0.30;;
2896;SDS011;1458;49.728;9.228;2022-12-24T07:36:28;0.40;;;0.40;;
2896;SDS011;1458;49.728;9.228;2022-12-24T07:38:55;0.30;;;0.30;;
2896;SDS011;1458;49.728;9.228;2022-12-24T07:41:23;0.30;;;0.30;;
2896;SDS011;1458;49.728;9.228;2022-12-24T07:43:51;0.30;;;0.30;;
2896;SDS011;1458;49.728;9.228;2022-12-24T07:46:20;0.30;;;0.30;;
2896;SDS011;1458;49.728;9.228;2022-12-24T07:48:48;0.30;;;0.30;;
2896;SDS011;1458;49.728;9.228;2022-12-24T07:51:15;0.30;;;0.30;;
2896;SDS011;1458;49.728;9.228;2022-12-24T07:53:42;0.30;;;0.30;;
2896;SDS011;1458;49.728;9.228;2022-12-24T07:56:12;0.30;;;0.30;;
2896;SDS011;1458;49.728;9.228;2022-12-24T07:58:40;0.30;;;0.30;;
2896;SDS011;1458;49.728;9.228;2022-12-24T08:01:07;0.40;;;0.40;;
2896;SDS011;1458;49.728;9.228;2022-12-24T08:03:38;0.30;;;0.30;;
2896;SDS011;1458;49.728;9.228;2022-12-24T08:06:06;0.30;;;0.30;;
2896;SDS011;1458;49.728;9.228;2022-12-24T08:08:33;0.40;;;0.40;;
2896;SDS011;1458;49.728;9.228;2022-12-24T08:11:02;0.30;;;0.30;;
2896;SDS011;1458;49.728;9.228;2022-12-24T08:13:32;0.30;;;0.30;;
2896;SDS011;1458;49.728;9.228;2022-12-24T08:16:00;0.40;;;0.40;;
2896;SDS011;1458;49.728;9.228;2022-12-24T08:18:27;0.30;;;0.30;;
2896;SDS011;1458;49.728;9.228;2022-12-24T08:20:56;0.30;;;0.30;;
2896;SDS011;1458;49.728;9.228;2022-12-24T08:23:24;0.40;;;0.40;;
2896;SDS011;1458;49.728;9.228;2022-12-24T08:25:51;0.43;;;0.43;;
2896;SDS011;1458;49.728;9.228;2022-12-24T08:28:19;0.30;;;0.30;;
2896;SDS011;1458;49.728;9.228;2022-12-24T08:30:48;0.30;;;0.30;;
2896;SDS011;1458;49.728;9.228;2022-12-24T08:33:16;0.40;;;0.40;;
2896;SDS011;1458;49.728;9.228;2022-12-24T08:35:47;0.50;;;0.50;;
2896;SDS011;1458;49.728;9.228;2022-12-24T08:38:16;0.40;;;0.40;;
2896;SDS011;1458;49.728;9.228;2022-12-24T08:40:45;0.40;;;0.40;;
2896;SDS011;1458;49.728;9.228;2022-12-24T08:43:14;0.30;;;0.30;;
2896;SDS011;1458;49.728;9.228;2022-12-24T08:45:42;0.30;;;0.30;;
2896;SDS011;1458;49.728;9.228;2022-12-24T08:48:10;0.40;;;0.40;;
2896;SDS011;1458;49.728;9.228;2022-12-24T08:50:38;0.30;;;0.30;;
2896;SDS011;1458;49.728;9.228;2022-12-24T08:53:07;0.30;;;0.30;;
2896;SDS011;1458;49.728;9.228;2022-12-24T08:55:36;0.40;;;0.40;;
2896;SDS011;1458;49.728;9.228;2022-12-24T08:58:04;0.30;;;0.30;;
2896;SDS011;1458;49.728;9.228;2022-12-24T09:00:32;0.40;;;0.40;;
2896;SDS011;1458;49.728;9.228;2022-12-24T09:02:59;0.40;;;0.40;;
2896;SDS011;1458;49.728;9.228;2022-12-24T09:05:27;0.30;;;0.30;;
2896;SDS011;1458;49.728;9.228;2022-12-24T09:07:54;0.30;;;0.30;;
2896;SDS011;1458;49.728;9.228;2022-12-24T09:10:22;0.40;;;0.40;;
2896;SDS011;1458;49.728;9.228;2022-12-24T09:12:52;0.30;;;0.30;;
2896;SDS011;1458;49.728;9.228;2022-12-24T09:15:19;0.30;;;0.30;;
2896;SDS011;1458;49.728;9.228;2022-12-24T09:17:47;0.40;;;0.40;;
2896;SDS011;1458;49.728;9.228;2022-12-24T09:20:14;0.50;;;0.50;;
2896;SDS011;1458;49.728;9.228;2022-12-24T09:22:42;0.40;;;0.40;;
2896;SDS011;1458;49.728;9.228;2022-12-24T09:25:09;0.43;;;0.43;;
2896;SDS011;1458;49.728;9.228;2022-12-24T09:27:37;0.40;;;0.40;;
2896;SDS011;1458;49.728;9.228;2022-12-24T09:30:06;0.40;;;0.40;;
2896;SDS011;1458;49.728;9.228;2022-12-24T09:32:35;0.40;;;0.40;;
2896;SDS011;1458;49.728;9.228;2022-12-24T09:35:03;0.50;;;0.50;;
2896;SDS011;1458;49.728;9.228;2022-12-24T09:37:32;0.50;;;0.50;;
2896;SDS011;1458;49.728;9.228;2022-12-24T09:39:59;0.40;;;0.40;;
2896;SDS011;1458;49.728;9.228;2022-12-24T09:42:30;0.40;;;0.40;;
2896;SDS011;1458;49.728;9.228;2022-12-24T09:45:12;0.40;;;0.40;;
2896;SDS011;1458;49.728;9.228;2022-12-24T09:47:46;0.40;;;0.40;;
2896;SDS011;1458;49.728;9.228;2022-12-24T09:53:09;0.50;;;0.50;;
2896;SDS011;1458;49.728;9.228;2022-12-24T09:55:44;0.60;;;0.60;;
2896;SDS011;1458;49.728;9.228;2022-12-24T09:58:18;0.47;;;0.47;;
2896;SDS011;1458;49.728;9.228;2022-12-24T10:00:52;0.50;;;0.50;;
2896;SDS011;1458;49.728;9.228;2022-12-24T10:03:20;0.40;;;0.40;;
2896;SDS011;1458;49.728;9.228;2022-12-24T10:05:50;0.50;;;0.50;;
2896;SDS011;1458;49.728;9.228;2022-12-24T10:08:33;0.40;;;0.40;;
2896;SDS011;1458;49.728;9.228;2022-12-24T10:11:13;0.40;;;0.40;;
2896;SDS011;1458;49.728;9.228;2022-12-24T10:13:55;0.50;;;0.50;;
2896;SDS011;1458;49.728;9.228;2022-12-24T10:16:38;0.40;;;0.40;;
2896;SDS011;1458;49.728;9.228;2022-12-24T10:19:17;0.50;;;0.50;;
2896;SDS011;1458;49.728;9.228;2022-12-24T10:21:57;0.50;;;0.50;;
2896;SDS011;1458;49.728;9.228;2022-12-24T10:24:35;0.60;;;0.60;;
2896;SDS011;1458;49.728;9.228;2022-12-24T10:27:12;0.60;;;0.60;;
2896;SDS011;1458;49.728;9.228;2022-12-24T10:29:42;0.70;;;0.70;;
2896;SDS011;1458;49.728;9.228;2022-12-24T10:32:16;0.50;;;0.50;;
2896;SDS011;1458;49.728;9.228;2022-12-24T10:34:51;0.50;;;0.50;;
2896;SDS011;1458;49.728;9.228;2022-12-24T10:37:29;0.60;;;0.60;;
2896;SDS011;1458;49.728;9.228;2022-12-24T10:39:59;0.53;;;0.53;;
2896;SDS011;1458;49.728;9.228;2022-12-24T10:42:31;0.60;;;0.60;;
2896;SDS011;1458;49.728;9.228;2022-12-24T10:45:08;0.50;;;0.50;;
2896;SDS011;1458;49.728;9.228;2022-12-24T10:47:45;0.80;;;0.80;;
2896;SDS011;1458;49.728;9.228;2022-12-24T10:50:17;0.50;;;0.50;;
2896;SDS011;1458;49.728;9.228;2022-12-24T10:52:52;0.50;;;0.50;;
2896;SDS011;1458;49.728;9.228;2022-12-24T10:55:27;0.80;;;0.80;;
2896;SDS011;1458;49.728;9.228;2022-12-24T10:57:59;0.80;;;0.80;;
2896;SDS011;1458;49.728;9.228;2022-12-24T11:00:31;0.60;;;0.60;;
2896;SDS011;1458;49.728;9.228;2022-12-24T11:03:19;0.50;;;0.50;;
2896;SDS011;1458;49.728;9.228;2022-12-24T11:06:00;0.60;;;0.60;;
2896;SDS011;1458;49.728;9.228;2022-12-24T11:08:31;0.50;;;0.50;;
2896;SDS011;1458;49.728;9.228;2022-12-24T11:11:00;0.60;;;0.60;;
2896;SDS011;1458;49.728;9.228;2022-12-24T11:13:30;0.70;;;0.70;;
2896;SDS011;1458;49.728;9.228;2022-12-24T11:16:01;0.50;;;0.50;;
2896;SDS011;1458;49.728;9.228;2022-12-24T11:18:35;0.60;;;0.60;;
2896;SDS011;1458;49.728;9.228;2022-12-24T11:21:10;0.50;;;0.50;;
2896;SDS011;1458;49.728;9.228;2022-12-24T11:23:48;0.60;;;0.60;;
2896;SDS011;1458;49.728;9.228;2022-12-24T11:26:20;0.57;;;0.57;;
2896;SDS011;1458;49.728;9.228;2022-12-24T11:31:40;0.50;;;0.50;;
2896;SDS011;1458;49.728;9.228;2022-12-24T11:34:23;0.50;;;0.50;;
2896;SDS011;1458;49.728;9.228;2022-12-24T11:36:53;0.40;;;0.40;;
2896;SDS011;1458;49.728;9.228;2022-12-24T11:39:37;0.50;;;0.50;;
2896;SDS011;1458;49.728;9.228;2022-12-24T11:42:07;0.40;;;0.40;;
2896;SDS011;1458;49.728;9.228;2022-12-24T11:44:52;0.40;;;0.40;;
2896;SDS011;1458;49.728;9.228;2022-12-24T11:47:30;0.57;;;0.57;;
2896;SDS011;1458;49.728;9.228;2022-12-24T11:52:51;0.50;;;0.50;;
2896;SDS011;1458;49.728;9.228;2022-12-24T11:55:29;0.40;;;0.40;;
2896;SDS011;1458;49.728;9.228;2022-12-24T11:58:13;0.60;;;0.60;;
2896;SDS011;1458;49.728;9.228;2022-12-24T12:00:54;0.60;;;0.60;;
2896;SDS011;1458;49.728;9.228;2022-12-24T12:03:29;0.50;;;0.50;;
2896;SDS011;1458;49.728;9.228;2022-12-24T12:06:03;0.70;;;0.70;;
2896;SDS011;1458;49.728;9.228;2022-12-24T12:08:45;0.70;;;0.70;;
2896;SDS011;1458;49.728;9.228;2022-12-24T12:11:14;0.60;;;0.60;;
2896;SDS011;1458;49.728;9.228;2022-12-24T12:13:42;0.60;;;0.60;;
2896;SDS011;1458;49.728;9.228;2022-12-24T12:16:13;0.70;;;0.70;;
2896;SDS011;1458;49.728;9.228;2022-12-24T12:18:48;0.80;;;0.80;;
2896;SDS011;1458;49.728;9.228;2022-12-24T12:21:24;0.60;;;0.60;;
2896;SDS011;1458;49.728;9.228;2022-12-24T12:24:02;0.70;;;0.70;;
2896;SDS011;1458;49.728;9.228;2022-12-24T12:26:33;0.70;;;0.70;;
2896;SDS011;1458;49.728;9.228;2022-12-24T12:29:02;0.60;;;0.60;;
2896;SDS011;1458;49.728;9.228;2022-12-24T12:31:48;0.70;;;0.70;;
2896;SDS011;1458;49.728;9.228;2022-12-24T12:34:23;0.60;;;0.60;;
2896;SDS011;1458;49.728;9.228;2022-12-24T12:37:04;0.60;;;0.60;;
2896;SDS011;1458;49.728;9.228;2022-12-24T12:39:36;0.70;;;0.70;;
2896;SDS011;1458;49.728;9.228;2022-12-24T12:42:06;0.70;;;0.70;;
2896;SDS011;1458;49.728;9.228;2022-12-24T12:44:44;0.83;;;0.83;;
2896;SDS011;1458;49.728;9.228;2022-12-24T12:47:30;0.70;;;0.70;;
2896;SDS011;1458;49.728;9.228;2022-12-24T12:50:28;0.70;;;0.70;;
2896;SDS011;1458;49.728;9.228;2022-12-24T12:53:12;0.70;;;0.70;;
2896;SDS011;1458;49.728;9.228;2022-12-24T12:55:58;0.77;;;0.77;;
2896;SDS011;1458;49.728;9.228;2022-12-24T12:58:40;0.63;;;0.63;;
2896;SDS011;1458;49.728;9.228;2022-12-24T13:01:16;0.70;;;0.70;;
2896;SDS011;1458;49.728;9.228;2022-12-24T13:03:56;0.70;;;0.70;;
2896;SDS011;1458;49.728;9.228;2022-12-24T13:10:16;0.70;;;0.70;;
2896;SDS011;1458;49.728;9.228;2022-12-24T13:13:30;0.70;;;0.70;;
2896;SDS011;1458;49.728;9.228;2022-12-24T13:19:29;0.50;;;0.50;;
2896;SDS011;1458;49.728;9.228;2022-12-24T13:22:12;0.40;;;0.40;;
2896;SDS011;1458;49.728;9.228;2022-12-24T13:24:46;0.40;;;0.40;;
2896;SDS011;1458;49.728;9.228;2022-12-24T13:27:18;0.30;;;0.30;;
2896;SDS011;1458;49.728;9.228;2022-12-24T13:29:53;0.40;;;0.40;;
2896;SDS011;1458;49.728;9.228;2022-12-24T13:32:38;0.30;;;0.30;;
2896;SDS011;1458;49.728;9.228;2022-12-24T13:35:26;0.40;;;0.40;;
2896;SDS011;1458;49.728;9.228;2022-12-24T13:44:25;0.30;;;0.30;;
2896;SDS011;1458;49.728;9.228;2022-12-24T13:47:02;0.30;;;0.30;;
2896;SDS011;1458;49.728;9.228;2022-12-24T13:49:47;0.30;;;0.30;;
2896;SDS011;1458;49.728;9.228;2022-12-24T13:52:19;0.30;;;0.30;;
2896;SDS011;1458;49.728;9.228;2022-12-24T13:55:03;0.30;;;0.30;;
2896;SDS011;1458;49.728;9.228;2022-12-24T13:57:43;0.30;;;0.30;;
2896;SDS011;1458;49.728;9.228;2022-12-24T14:03:21;0.20;;;0.20;;
2896;SDS011;1458;49.728;9.228;2022-12-24T14:05:56;0.30;;;0.30;;
2896;SDS011;1458;49.728;9.228;2022-12-24T14:08:34;0.30;;;0.30;;
2896;SDS011;1458;49.728;9.228;2022-12-24T14:11:10;0.33;;;0.33;;
2896;SDS011;1458;49.728;9.228;2022-12-24T14:16:42;0.27;;;0.27;;
2896;SDS011;1458;49.728;9.228;2022-12-24T14:19:18;0.30;;;0.30;;
2896;SDS011;1458;49.728;9.228;2022-12-24T14:21:51;0.20;;;0.20;;
2896;SDS011;1458;49.728;9.228;2022-12-24T14:24:26;0.20;;;0.20;;
2896;SDS011;1458;49.728;9.228;2022-12-24T14:26:59;0.20;;;0.20;;
2896;SDS011;1458;49.728;9.228;2022-12-24T14:29:40;0.30;;;0.30;;
2896;SDS011;1458;49.728;9.228;2022-12-24T14:32:15;0.20;;;0.20;;
2896;SDS011;1458;49.728;9.228;2022-12-24T14:34:43;0.40;;;0.40;;
2896;SDS011;1458;49.728;9.228;2022-12-24T14:37:11;0.30;;;0.30;;
2896;SDS011;1458;49.728;9.228;2022-12-24T14:39:40;0.27;;;0.27;;
2896;SDS011;1458;49.728;9.228;2022-12-24T14:42:17;0.20;;;0.20;;
2896;SDS011;1458;49.728;9.228;2022-12-24T14:45:01;0.20;;;0.20;;
2896;SDS011;1458;49.728;9.228;2022-12-24T14:47:42;0.20;;;0.20;;
2896;SDS011;1458;49.728;9.228;2022-12-24T14:50:22;0.20;;;0.20;;
2896;SDS011;1458;49.728;9.228;2022-12-24T14:53:16;0.27;;;0.27;;
2896;SDS011;1458;49.728;9.228;2022-12-24T14:55:52;0.20;;;0.20;;
2896;SDS011;1458;49.728;9.228;2022-12-24T14:58:20;0.20;;;0.20;;
2896;SDS011;1458;49.728;9.228;2022-12-24T15:00:52;0.40;;;0.40;;
2896;SDS011;1458;49.728;9.228;2022-12-24T15:03:23;0.30;;;0.30;;
2896;SDS011;1458;49.728;9.228;2022-12-24T15:05:54;0.23;;;0.23;;
2896;SDS011;1458;49.728;9.228;2022-12-24T15:08:26;0.30;;;0.30;;
2896;SDS011;1458;49.728;9.228;2022-12-24T15:10:59;0.20;;;0.20;;
2896;SDS011;1458;49.728;9.228;2022-12-24T15:13:31;0.20;;;0.20;;
2896;SDS011;1458;49.728;9.228;2022-12-24T15:16:02;0.20;;;0.20;;
2896;SDS011;1458;49.728;9.228;2022-12-24T15:18:33;0.20;;;0.20;;
2896;SDS011;1458;49.728;9.228;2022-12-24T15:21:05;0.20;;;0.20;;
2896;SDS011;1458;49.728;9.228;2022-12-24T15:23:44;0.30;;;0.30;;
2896;SDS011;1458;49.728;9.228;2022-12-24T15:26:18;0.23;;;0.23;;
2896;SDS011;1458;49.728;9.228;2022-12-24T15:28:50;0.23;;;0.23;;
2896;SDS011;1458;49.728;9.228;2022-12-24T15:31:20;0.20;;;0.20;;
2896;SDS011;1458;49.728;9.228;2022-12-24T15:33:52;0.20;;;0.20;;
2896;SDS011;1458;49.728;9.228;2022-12-24T15:36:24;0.20;;;0.20;;
2896;SDS011;1458;49.728;9.228;2022-12-24T15:38:57;0.20;;;0.20;;
2896;SDS011;1458;49.728;9.228;2022-12-24T15:41:28;0.20;;;0.20;;
2896;SDS011;1458;49.728;9.228;2022-12-24T15:44:23;0.30;;;0.30;;
2896;SDS011;1458;49.728;9.228;2022-12-24T15:46:56;0.20;;;0.20;;
2896;SDS011;1458;49.728;9.228;2022-12-24T15:49:26;0.20;;;0.20;;
2896;SDS011;1458;49.728;9.228;2022-12-24T15:52:01;0.20;;;0.20;;
2896;SDS011;1458;49.728;9.228;2022-12-24T15:54:30;0.20;;;0.20;;
2896;SDS011;1458;49.728;9.228;2022-12-24T15:56:58;0.20;;;0.20;;
2896;SDS011;1458;49.728;9.228;2022-12-24T15:59:38;0.20;;;0.20;;
2896;SDS011;1458;49.728;9.228;2022-12-24T16:05:18;0.20;;;0.20;;
2896;SDS011;1458;49.728;9.228;2022-12-24T16:07:58;0.20;;;0.20;;
2896;SDS011;1458;49.728;9.228;2022-12-24T16:10:32;0.20;;;0.20;;
2896;SDS011;1458;49.728;9.228;2022-12-24T16:13:08;0.20;;;0.20;;
2896;SDS011;1458;49.728;9.228;2022-12-24T16:15:49;0.20;;;0.20;;
2896;SDS011;1458;49.728;9.228;2022-12-24T16:18:24;0.20;;;0.20;;
2896;SDS011;1458;49.728;9.228;2022-12-24T16:20:58;0.20;;;0.20;;
2896;SDS011;1458;49.728;9.228;2022-12-24T16:23:28;0.20;;;0.20;;
2896;SDS011;1458;49.728;9.228;2022-12-24T16:26:01;0.20;;;0.20;;